createdAt,value
2017-09-19T17:05:22.966Z,3.60
2017-09-19T17:07:50.428Z,4.43
2017-09-19T17:10:17.952Z,4.30
2017-09-19T17:12:45.490Z,3.60
2017-09-19T17:15:12.965Z,3.47
2017-09-19T17:17:40.427Z,4.20
2017-09-19T17:20:07.893Z,4.20
2017-09-19T17:22:35.360Z,4.00
2017-09-19T17:25:03.131Z,4.70
2017-09-19T17:27:30.643Z,3.77
2017-09-19T17:29:58.094Z,4.13
2017-09-19T17:32:25.579Z,4.60
2017-09-19T17:34:53.071Z,5.37
2017-09-19T17:37:20.627Z,3.93
2017-09-19T17:39:48.105Z,4.60
2017-09-19T17:42:15.615Z,4.60
2017-09-19T17:44:43.095Z,10.10
2017-09-19T17:47:10.925Z,4.90
2017-09-19T17:49:38.389Z,4.37
2017-09-19T17:52:05.887Z,4.07
2017-09-19T17:54:33.379Z,4.47
2017-09-19T17:57:00.866Z,3.63
2017-09-19T17:59:28.364Z,8.67
2017-09-19T18:01:55.896Z,7.97
2017-09-19T18:04:23.396Z,6.47
2017-09-19T18:06:50.876Z,5.33
2017-09-19T18:09:18.624Z,5.30
2017-09-19T18:11:46.126Z,4.10
2017-09-19T18:14:13.592Z,5.13
2017-09-19T18:16:41.075Z,5.90
2017-09-19T18:19:08.535Z,5.40
2017-09-19T18:21:36.051Z,5.50
2017-09-19T18:24:03.622Z,5.57
2017-09-19T18:26:31.088Z,4.80
2017-09-19T18:28:58.594Z,5.60
2017-09-19T18:31:26.107Z,6.17
2017-09-19T18:33:54.045Z,6.37
2017-09-19T18:36:21.540Z,6.10
2017-09-19T18:38:49.029Z,6.10
2017-09-19T18:41:16.588Z,6.60
2017-09-19T18:43:44.358Z,7.20
2017-09-19T18:46:11.831Z,7.40
2017-09-19T18:48:39.308Z,7.40
2017-09-19T18:51:06.844Z,7.07
2017-09-19T18:53:34.407Z,8.17
2017-09-19T18:56:01.918Z,8.30
2017-09-19T18:58:29.409Z,26.83
2017-09-19T19:00:56.907Z,8.13
2017-09-19T19:03:24.404Z,52.33
2017-09-19T19:05:52.206Z,8.63
2017-09-19T19:08:19.685Z,8.13
2017-09-19T19:10:47.162Z,8.30
2017-09-19T19:13:14.647Z,10.83
2017-09-19T19:15:42.149Z,8.20
2017-09-19T19:18:09.642Z,10.23
2017-09-19T19:20:37.111Z,19.33
2017-09-19T19:23:04.932Z,9.83
2017-09-19T19:25:32.474Z,9.30
2017-09-19T19:27:59.989Z,9.43
2017-09-19T19:30:27.505Z,10.27
2017-09-19T19:32:54.968Z,9.60
2017-09-19T19:35:22.615Z,10.10
2017-09-19T19:37:50.105Z,10.50
2017-09-19T19:40:17.597Z,11.60
2017-09-19T19:42:45.089Z,11.80
2017-09-19T19:45:12.601Z,10.07
2017-09-19T19:47:40.128Z,11.17
2017-09-19T19:50:07.978Z,11.40
2017-09-19T19:52:35.465Z,11.03
2017-09-19T19:55:02.945Z,12.00
2017-09-19T19:57:30.441Z,11.07
2017-09-19T19:59:57.921Z,12.33
2017-09-19T20:02:25.404Z,12.10
2017-09-19T20:04:52.878Z,11.83
2017-09-19T20:07:21.299Z,11.80
2017-09-19T20:09:48.785Z,12.93
2017-09-19T20:12:16.267Z,12.80
2017-09-19T20:14:43.769Z,13.80
2017-09-19T20:17:11.258Z,11.60
2017-09-19T20:19:38.753Z,11.87
2017-09-19T20:22:06.233Z,13.53
2017-09-19T20:24:33.995Z,13.37
2017-09-19T20:27:01.562Z,20.90
2017-09-19T20:29:29.051Z,14.97
2017-09-19T20:31:56.547Z,13.27
2017-09-19T20:34:24.037Z,14.33
2017-09-19T20:36:52.051Z,14.13
2017-09-19T20:39:19.562Z,13.60
2017-09-19T20:41:47.039Z,13.33
2017-09-19T20:44:14.575Z,14.93
2017-09-19T20:46:42.468Z,15.33
2017-09-19T20:49:09.960Z,15.27
2017-09-19T20:51:37.440Z,14.37
2017-09-19T20:54:04.927Z,15.87
2017-09-19T20:56:32.409Z,14.80
2017-09-19T20:58:59.894Z,15.67
2017-09-19T21:01:27.410Z,16.57
2017-09-19T21:04:00.494Z,14.33
2017-09-19T21:06:33.759Z,14.10
2017-09-19T21:09:07.180Z,17.20
2017-09-19T21:11:40.240Z,15.43
2017-09-19T21:14:13.658Z,16.37
2017-09-19T21:16:46.784Z,17.83
2017-09-19T21:19:20.351Z,16.03
2017-09-19T21:21:47.801Z,17.60
2017-09-19T21:24:15.307Z,15.90
2017-09-19T21:26:42.802Z,15.83
2017-09-19T21:29:10.279Z,16.93
2017-09-19T21:31:37.902Z,18.07
2017-09-19T21:34:05.380Z,15.20
2017-09-19T21:36:33.179Z,16.87
2017-09-19T21:39:00.646Z,17.97
2017-09-19T21:41:28.192Z,17.57
2017-09-19T21:43:55.679Z,16.93
2017-09-19T21:46:23.163Z,17.73
2017-09-19T21:48:50.649Z,15.60
2017-09-19T21:51:18.125Z,17.00
2017-09-19T21:53:55.503Z,18.33
2017-09-19T21:56:23.056Z,18.70
2017-09-19T21:58:50.857Z,17.47
2017-09-19T22:01:18.382Z,18.20
2017-09-19T22:03:45.862Z,19.30
2017-09-19T22:06:13.351Z,20.60
2017-09-19T22:08:40.829Z,18.60
2017-09-19T22:11:08.354Z,21.50
2017-09-19T22:13:35.870Z,19.40
2017-09-19T22:16:03.362Z,21.77
2017-09-19T22:18:30.875Z,21.33
2017-09-19T22:20:58.392Z,20.70
2017-09-19T22:23:25.869Z,21.10
2017-09-19T22:25:53.681Z,20.20
2017-09-19T22:28:21.148Z,23.07
2017-09-19T22:30:48.625Z,20.70
2017-09-19T22:33:16.133Z,22.13
2017-09-19T22:35:43.616Z,20.33
2017-09-19T22:38:11.085Z,20.80
2017-09-19T22:40:38.560Z,20.33
2017-09-19T22:43:06.315Z,21.20
2017-09-19T22:45:33.779Z,20.27
2017-09-19T22:48:01.235Z,20.43
2017-09-19T22:50:28.718Z,19.80
2017-09-19T22:52:56.182Z,19.97
2017-09-19T22:55:23.666Z,19.30
2017-09-19T22:57:51.140Z,17.80
2017-09-19T23:00:18.742Z,18.43
2017-09-19T23:02:46.217Z,18.10
2017-09-19T23:05:13.733Z,20.10
2017-09-19T23:07:41.206Z,17.60
2017-09-19T23:10:09.025Z,20.10
2017-09-19T23:12:36.508Z,18.60
2017-09-19T23:15:03.970Z,18.77
2017-09-19T23:17:31.448Z,22.70
2017-09-19T23:19:58.917Z,22.00
2017-09-19T23:22:26.716Z,21.10
2017-09-19T23:24:54.175Z,20.90
2017-09-19T23:27:21.637Z,20.17
2017-09-19T23:29:49.111Z,22.83
2017-09-19T23:32:16.584Z,22.13
2017-09-19T23:34:44.071Z,21.83
2017-09-19T23:37:11.552Z,22.93
2017-09-19T23:39:39.038Z,23.07
2017-09-19T23:42:06.500Z,23.47
2017-09-19T23:44:34.352Z,24.80
2017-09-19T23:47:01.823Z,23.37
2017-09-19T23:49:29.292Z,25.60
2017-09-19T23:51:56.810Z,24.00
2017-09-19T23:54:24.420Z,25.67
2017-09-19T23:56:51.883Z,26.27
2017-09-19T23:59:19.365Z,24.80
